Time;durP1;ratioP1;P1;durP2;ratioP2;P2;SDS_P1;SDS_P2;PMS_P1;PMS_P2;Temp;Humidity;BMP_temperature;BMP_pressure;BME280_temperature;BME280_humidity;BME280_pressure;Samples;Min_cycle;Max_cycle;Signal;HPM_P1;HPM_P2
2022/07/07 00:01:51;;;;;;;47.13;26.88;;;;;;;-143.10;100.00;51182.97;4779535;29;20151;-65
2022/07/07 00:04:33;;;;;;;47.92;26.42;;;;;;;-143.10;100.00;51190.81;4780060;29;20580;-65
2022/07/07 00:07:23;;;;;;;41.10;26.48;;;;;;;-143.10;100.00;51182.97;4780957;29;20544;-65
2022/07/07 00:10:07;;;;;;;44.15;26.80;;;;;;;-143.10;100.00;51137.94;4781867;29;20071;-65
2022/07/07 00:12:56;;;;;;;47.28;26.23;;;;;;;-143.10;100.00;51175.13;4781228;29;20479;-65
2022/07/07 00:15:42;;;;;;;47.53;27.85;;;;;;;-143.10;100.00;51153.59;4781553;29;20142;-64
2022/07/07 00:18:31;;;;;;;39.35;26.02;;;;;;;-143.10;100.00;51167.31;4782919;29;20132;-65
2022/07/07 00:21:15;;;;;;;40.50;24.73;;;;;;;-143.10;100.00;51175.13;4793994;29;20693;-65
2022/07/07 00:24:03;;;;;;;39.35;23.70;;;;;;;-143.10;100.00;51184.94;4782117;30;20128;-65
2022/07/07 00:26:46;;;;;;;35.92;22.77;;;;;;;-143.10;100.00;51155.56;4781197;30;21390;-65
2022/07/07 00:29:43;;;;;;;35.08;23.45;;;;;;;-143.10;100.00;51208.41;4765158;29;20337;-65
2022/07/07 00:32:34;;;;;;;33.72;22.85;;;;;;;-143.10;100.00;51175.13;4771838;30;21399;-65
2022/07/07 00:35:22;;;;;;;32.97;20.63;;;;;;;-143.10;100.00;51155.56;4781355;30;20493;-65
2022/07/07 00:38:06;;;;;;;36.40;21.35;;;;;;;-143.10;100.00;51157.50;4796552;29;20074;-66
2022/07/07 00:40:59;;;;;;;34.33;20.20;;;;;;;-143.10;100.00;51179.06;4786129;29;20448;-65
2022/07/07 00:43:42;;;;;;;30.42;20.30;;;;;;;-143.10;100.00;51181.00;4766471;29;20407;-65
2022/07/07 00:46:47;;;;;;;27.13;18.58;;;;;;;-143.10;100.00;51116.41;4781056;29;20082;-65
2022/07/07 00:49:32;;;;;;;31.35;20.58;;;;;;;-143.10;100.00;51147.72;4767303;29;20086;-65
2022/07/07 00:52:36;;;;;;;31.75;20.73;;;;;;;-143.10;100.00;51161.44;4798806;29;20086;-64
2022/07/07 00:55:25;;;;;;;30.67;20.33;;;;;;;-143.10;100.00;51173.19;4798815;29;20075;-63
2022/07/07 00:58:08;;;;;;;34.28;21.25;;;;;;;-143.10;100.00;51204.50;4799035;29;20081;-64
2022/07/07 01:00:59;;;;;;;34.53;21.27;;;;;;;-143.10;100.00;51175.13;4798968;29;20074;-65
2022/07/07 01:03:41;;;;;;;36.33;23.25;;;;;;;-143.10;100.00;51155.56;4791655;29;20078;-63
2022/07/07 01:06:32;;;;;;;34.58;19.92;;;;;;;-143.10;100.00;51155.56;4780801;30;20082;-64
2022/07/07 01:09:14;;;;;;;35.97;22.60;;;;;;;-143.10;100.00;51151.66;4780690;30;20163;-64
2022/07/07 01:12:05;;;;;;;38.58;23.33;;;;;;;-143.10;100.00;51151.66;4765638;30;20075;-64
2022/07/07 01:14:40;;;;;;;38.67;23.33;;;;;;;-143.10;100.00;51153.59;4780416;30;21137;-64
2022/07/07 01:17:30;;;;;;;31.48;22.10;;;;;;;-143.10;100.00;51155.56;4781073;30;20067;-65
2022/07/07 01:20:13;;;;;;;33.22;21.40;;;;;;;-143.10;100.00;51134.03;4780692;30;20070;-64
2022/07/07 01:23:03;;;;;;;32.92;21.67;;;;;;;-143.10;100.00;51163.38;4780531;30;20080;-64
2022/07/07 01:25:46;;;;;;;31.42;20.65;;;;;;;-143.10;100.00;51175.13;4779893;30;20401;-65
2022/07/07 01:28:43;;;;;;;34.85;20.70;;;;;;;-143.10;100.00;51151.66;4781307;29;20212;-65
2022/07/07 01:31:33;;;;;;;31.52;19.35;;;;;;;-143.10;100.00;51143.81;4779822;30;20143;-64
2022/07/07 01:34:21;;;;;;;34.65;20.83;;;;;;;-143.10;100.00;51149.69;4780770;30;20071;-65
2022/07/07 01:37:06;;;;;;;34.50;21.42;;;;;;;-143.10;100.00;51155.56;4780824;30;20075;-65
2022/07/07 01:39:55;;;;;;;32.05;21.13;;;;;;;-143.10;100.00;51155.56;4780183;30;20281;-64
2022/07/07 01:42:38;;;;;;;33.92;18.80;;;;;;;-143.10;100.00;51147.72;4779736;29;20084;-64
2022/07/07 01:45:28;;;;;;;33.47;20.20;;;;;;;-143.10;100.00;51175.13;4780449;30;20090;-65
2022/07/07 01:48:10;;;;;;;28.27;19.55;;;;;;;-143.10;100.00;51135.97;4780253;30;20081;-65
2022/07/07 01:51:00;;;;;;;30.58;19.13;;;;;;;-143.10;100.00;51159.47;4780717;30;20078;-64
2022/07/07 01:53:43;;;;;;;32.17;19.70;;;;;;;-143.10;100.00;51175.13;4780144;30;21389;-64
2022/07/07 01:56:34;;;;;;;26.50;18.73;;;;;;;-143.10;100.00;51143.81;4780093;30;20356;-64
2022/07/07 01:59:17;;;;;;;30.55;18.42;;;;;;;-143.10;100.00;51149.69;4764602;30;20433;-65
2022/07/07 02:02:07;;;;;;;29.02;18.08;;;;;;;-143.10;100.00;51132.06;4781022;30;20071;-64
2022/07/07 02:04:49;;;;;;;31.55;20.27;;;;;;;-143.10;100.00;51210.38;4779928;29;20285;-64
2022/07/07 02:07:42;;;;;;;33.75;20.65;;;;;;;-143.10;100.00;51163.38;4779765;30;20341;-64
2022/07/07 02:13:32;;;;;;;30.50;19.20;;;;;;;-143.10;100.00;51159.47;4779865;30;20079;-65
2022/07/07 02:16:18;;;;;;;28.58;18.67;;;;;;;-143.10;100.00;51151.66;4781373;29;20071;-65
2022/07/07 02:19:12;;;;;;;31.73;19.00;;;;;;;-143.10;100.00;51120.31;4762444;30;20083;-65
2022/07/07 02:21:55;;;;;;;29.10;17.88;;;;;;;-143.10;100.00;51124.22;4777310;30;20628;-65
2022/07/07 02:24:46;;;;;;;30.40;19.90;;;;;;;-143.10;100.00;51171.22;4779754;30;20441;-66
2022/07/07 02:27:36;;;;;;;29.48;19.38;;;;;;;-143.10;100.00;51159.47;4779888;30;20184;-65
2022/07/07 02:30:32;;;;;;;36.22;21.55;;;;;;;-143.10;100.00;51132.06;4766820;29;20075;-65
2022/07/07 02:33:09;;;;;;;27.70;17.33;;;;;;;-143.10;100.00;51149.69;4795438;29;20081;-65
2022/07/07 02:35:59;;;;;;;32.90;20.27;;;;;;;-143.10;100.00;51159.47;4801580;29;20081;-66
2022/07/07 02:38:50;;;;;;;27.80;18.25;;;;;;;-143.10;100.00;51114.44;4801219;29;20333;-66
2022/07/07 02:41:39;;;;;;;30.90;19.70;;;;;;;-143.10;100.00;51145.78;4800548;29;20078;-65
2022/07/07 02:44:23;;;;;;;30.35;20.80;;;;;;;-143.10;100.00;51163.38;4799898;29;20141;-66
2022/07/07 02:47:12;;;;;;;31.58;20.33;;;;;;;-143.10;100.00;51126.19;4800950;29;20563;-66
2022/07/07 02:49:55;;;;;;;32.50;18.80;;;;;;;-143.10;100.00;51155.56;4801479;29;20082;-65
2022/07/07 02:52:52;;;;;;;34.45;20.00;;;;;;;-143.10;100.00;51147.72;4800467;29;20437;-65
2022/07/07 02:55:30;;;;;;;41.80;21.02;;;;;;;-143.10;100.00;51165.34;4794296;29;20079;-66
2022/07/07 02:58:27;;;;;;;35.00;20.58;;;;;;;-143.10;100.00;51151.66;4780603;29;20070;-66
2022/07/07 03:01:02;;;;;;;35.38;21.80;;;;;;;-143.10;100.00;51108.56;4781441;29;20082;-66
2022/07/07 03:03:59;;;;;;;31.88;20.98;;;;;;;-143.10;100.00;51147.72;4781881;29;20079;-66
2022/07/07 03:06:35;;;;;;;35.00;19.67;;;;;;;-143.10;100.00;51143.81;4782700;30;20433;-65
2022/07/07 03:09:30;;;;;;;32.55;21.38;;;;;;;-143.10;100.00;51147.72;4782078;29;20083;-67
2022/07/07 03:12:07;;;;;;;31.92;20.17;;;;;;;-143.10;100.00;51108.56;4782582;30;20593;-65
2022/07/07 03:14:56;;;;;;;31.92;18.90;;;;;;;-143.10;100.00;51128.16;4765386;30;20589;-64
2022/07/07 03:17:38;;;;;;;24.90;18.05;;;;;;;-143.10;100.00;51124.22;4769884;30;20348;-66
2022/07/07 03:20:28;;;;;;;31.55;20.05;;;;;;;-143.10;100.00;51124.22;4782280;30;20477;-64
2022/07/07 03:23:17;;;;;;;31.45;18.00;;;;;;;-143.10;100.00;51094.88;4782700;30;20160;-65
2022/07/07 03:26:00;;;;;;;36.35;20.35;;;;;;;-143.10;100.00;51100.75;4782614;30;20083;-65
2022/07/07 03:28:50;;;;;;;27.27;18.08;;;;;;;-143.10;100.00;51143.81;4782442;29;20075;-65
2022/07/07 03:31:40;;;;;;;29.05;19.85;;;;;;;-143.10;100.00;51110.53;4781924;30;20067;-65
2022/07/07 03:34:31;;;;;;;34.45;20.48;;;;;;;-143.10;100.00;51120.31;4776724;29;20143;-65
2022/07/07 03:37:14;;;;;;;35.53;20.90;;;;;;;-143.10;100.00;51134.03;4781819;30;20080;-65
2022/07/07 03:40:04;;;;;;;30.27;20.63;;;;;;;-143.10;100.00;51124.22;4782743;30;20123;-65
2022/07/07 03:42:47;;;;;;;36.17;20.85;;;;;;;-143.10;100.00;51122.28;4780679;29;20392;-66
2022/07/07 03:45:37;;;;;;;31.45;20.40;;;;;;;-143.10;100.00;51139.91;4764623;30;20135;-66
2022/07/07 03:48:20;;;;;;;31.13;20.83;;;;;;;-143.10;100.00;51087.03;4780625;30;20546;-66
2022/07/07 03:51:10;;;;;;;35.17;21.17;;;;;;;-143.10;100.00;51096.81;4780247;30;20078;-66
2022/07/07 03:53:53;;;;;;;34.10;21.23;;;;;;;-143.10;99.72;51055.72;4780786;29;20132;-66
2022/07/07 03:56:44;;;;;;;37.90;20.48;;;;;;;-143.10;97.63;51112.50;4780237;29;20078;-67
2022/07/07 03:59:40;;;;;;;30.58;18.98;;;;;;;-143.10;95.22;51098.78;4780583;30;20269;-66
2022/07/07 04:02:16;;;;;;;26.80;17.75;;;;;;;-143.10;89.03;51092.91;4774370;30;20347;-66
2022/07/07 04:05:05;;;;;;;;;;;;;;;-143.10;86.85;51065.50;4781558;30;20079;-67
2022/07/07 04:07:50;;;;;;;28.27;17.67;;;;;;;-143.10;91.90;51081.16;4781264;30;20159;-65
2022/07/07 04:10:46;;;;;;;26.45;17.70;;;;;;;-143.10;86.65;51083.13;4781177;30;20279;-65
2022/07/07 04:13:23;;;;;;;25.67;16.15;;;;;;;-143.10;83.10;51083.13;4781405;30;20070;-65
2022/07/07 04:16:18;;;;;;;26.20;17.10;;;;;;;-143.10;82.17;51075.28;4782024;30;20421;-63
2022/07/07 04:18:57;;;;;;;23.05;16.60;;;;;;;-143.10;84.52;51094.88;4781216;30;20075;-65
2022/07/07 04:21:54;;;;;;;24.48;17.25;;;;;;;-143.10;84.93;51075.28;4780579;29;20382;-66
2022/07/07 04:24:29;;;;;;;42.25;17.10;;;;;;;-143.10;86.00;51106.63;4780597;29;20699;-66
2022/07/07 04:27:26;;;;;;;24.65;16.20;;;;;;;-143.10;82.60;51098.78;4767624;29;20077;-66
2022/07/07 04:30:16;;;;;;;22.60;15.02;;;;;;;-143.10;80.87;51077.25;4781497;29;20692;-67
2022/07/07 04:33:11;;;;;;;27.00;16.23;;;;;;;-143.10;78.17;51065.50;4798670;29;20078;-66
2022/07/07 04:35:47;;;;;;;22.35;14.48;;;;;;;-143.10;77.60;51057.66;4798034;29;20287;-65
2022/07/07 04:38:37;;;;;;;19.75;13.90;;;;;;;-143.10;71.54;51075.28;4789883;29;20127;-65
2022/07/07 04:41:19;;;;;;;;;;;;;;;-143.10;72.14;51045.91;4779196;29;20131;-66
2022/07/07 04:44:09;;;;;;;22.00;12.55;;;;;;;-143.10;71.53;51038.09;4779754;29;19964;-65
2022/07/07 04:46:59;;;;;;;21.90;13.77;;;;;;;-143.10;71.96;51022.44;4763364;30;20421;-64
2022/07/07 04:49:43;;;;;;;19.98;14.98;;;;;;;-143.10;69.73;51051.78;4761541;30;21246;-65
2022/07/07 04:52:32;;;;;;;21.27;12.95;;;;;;;-143.10;64.95;51016.56;4763209;30;20077;-64
2022/07/07 04:55:15;;;;;;;20.88;13.30;;;;;;;-143.10;68.05;51040.03;4763562;30;20872;-65
2022/07/07 04:58:04;;;;;;;18.98;11.52;;;;;;;-143.10;66.80;51018.50;4763533;30;20597;-65
2022/07/07 05:00:47;;;;;;;18.75;12.68;;;;;;;-143.10;64.07;51024.38;4763233;30;20486;-65
2022/07/07 05:03:42;;;;;;;16.65;12.18;;;;;;;-143.10;63.54;51026.34;4779956;29;20549;-64
2022/07/07 05:06:39;;;;;;;18.23;12.68;;;;;;;-143.10;61.88;51043.97;4779967;30;20067;-65
2022/07/07 05:09:14;;;;;;;21.70;12.68;;;;;;;-143.10;67.48;51045.91;4778920;29;20183;-65
2022/07/07 05:12:04;;;;;;;;;;;;;;;-143.10;64.31;51024.38;4779074;29;20429;-66
2022/07/07 05:14:53;;;;;;;21.52;11.77;;;;;;;-143.10;65.02;51018.50;4779066;29;21342;-66
2022/07/07 05:17:36;;;;;;;23.42;12.75;;;;;;;-143.10;62.03;50983.28;4780266;29;21397;-66
2022/07/07 05:20:25;;;;;;;15.38;12.63;;;;;;;-143.10;60.38;50987.19;4780111;29;20078;-66
2022/07/07 05:23:15;;;;;;;15.80;11.55;;;;;;;-143.10;63.14;51022.44;4780242;29;20070;-66
2022/07/07 05:25:58;;;;;;;15.50;11.45;;;;;;;-143.10;61.71;51016.56;4779003;29;20071;-66
2022/07/07 05:28:48;;;;;;;16.40;11.98;;;;;;;-143.10;68.19;51022.44;4777311;29;20331;-68
2022/07/07 05:31:38;;;;;;;;;;;;;;;-143.10;71.65;51002.84;4780673;29;20517;-67
2022/07/07 05:34:33;;;;;;;17.52;13.00;;;;;;;-143.10;66.67;51022.44;4779193;29;19973;-66
2022/07/07 05:37:10;;;;;;;16.55;12.70;;;;;;;-143.10;70.44;50987.19;4779036;29;20063;-65
2022/07/07 05:40:05;;;;;;;26.75;13.32;;;;;;;-143.10;72.10;51030.25;4780031;29;20070;-66
2022/07/07 05:42:42;;;;;;;18.70;13.48;;;;;;;-143.10;66.80;50995.03;4780138;29;21377;-67
2022/07/07 05:45:36;;;;;;;20.55;14.15;;;;;;;-143.10;63.91;51006.75;4787604;29;20272;-66
2022/07/07 05:48:26;;;;;;;19.05;13.45;;;;;;;-143.10;69.58;51010.69;4797855;29;20574;-64
2022/07/07 05:51:08;;;;;;;;;;;;;;;-143.10;70.24;51018.50;4798763;29;20079;-65
2022/07/07 05:53:57;;;;;;;18.83;13.63;;;;;;;-143.10;71.92;51020.47;4797868;29;20417;-67
2022/07/07 05:56:40;;;;;;;18.95;13.70;;;;;;;-143.10;67.34;50987.19;4797330;29;20772;-65
2022/07/07 05:59:28;;;;;;;19.38;13.02;;;;;;;-143.10;65.80;51010.69;4793944;29;20078;-66
2022/07/07 06:02:19;;;;;;;18.42;12.27;;;;;;;-143.10;68.38;51028.31;4780253;29;20075;-67
2022/07/07 06:05:09;;;;;;;15.50;12.15;;;;;;;-143.10;67.20;51008.72;4784984;29;20639;-68
2022/07/07 06:07:51;;;;;;;19.42;12.80;;;;;;;-143.10;64.20;50993.06;4787677;29;20440;-63
2022/07/07 06:10:42;;;;;;;17.40;11.27;;;;;;;-143.10;66.88;51030.25;4786972;29;20323;-65
2022/07/07 06:13:32;;;;;;;15.70;12.13;;;;;;;-143.10;65.77;51010.69;4771973;29;20075;-66
2022/07/07 06:16:38;;;;;;;16.98;12.77;;;;;;;-143.10;67.37;51030.25;4779726;29;20075;-65
2022/07/07 06:19:28;;;;;;;16.77;13.23;;;;;;;-143.10;67.61;51010.69;4765273;30;20075;-66
2022/07/07 06:22:17;;;;;;;18.70;13.40;;;;;;;-143.10;65.29;50987.19;4765922;30;20082;-66
2022/07/07 06:25:14;;;;;;;18.13;13.85;;;;;;;-143.10;66.99;50983.28;4765318;30;20067;-65
2022/07/07 06:27:51;;;;;;;15.10;11.93;;;;;;;-143.10;67.67;51010.69;4777267;29;20318;-66
2022/07/07 06:30:46;;;;;;;22.13;13.73;;;;;;;-143.10;69.75;51038.09;4784041;29;20415;-66
2022/07/07 06:33:36;;;;;;;18.98;13.95;;;;;;;-143.10;69.95;51008.72;4792336;29;21131;-66
2022/07/07 06:36:27;;;;;;;17.30;12.55;;;;;;;-143.10;66.26;51008.72;4801298;29;20131;-66
2022/07/07 06:39:09;;;;;;;;;;;;;;;-143.10;68.82;51014.59;4802036;29;20483;-64
2022/07/07 06:41:58;;;;;;;15.93;12.82;;;;;;;-143.10;68.88;51022.44;4801755;29;20434;-66
2022/07/07 06:44:47;;;;;;;19.38;14.23;;;;;;;-143.10;67.03;51004.81;4799763;29;20313;-66
2022/07/07 06:47:37;;;;;;;19.52;13.70;;;;;;;-143.10;69.52;51012.63;4801143;29;20696;-66
2022/07/07 06:50:33;;;;;;;17.50;14.07;;;;;;;-143.10;68.97;51014.59;4800739;29;20122;-65
2022/07/07 06:53:29;;;;;;;18.88;14.75;;;;;;;-143.10;70.21;51012.63;4785225;29;20074;-65
2022/07/07 06:56:06;;;;;;;22.77;14.40;;;;;;;-143.10;72.32;51022.44;4801212;29;20139;-64
2022/07/07 06:58:55;;;;;;;;;;;;;;;-143.10;72.93;50995.03;4802181;29;20707;-65
2022/07/07 07:01:44;;;;;;;22.83;13.77;;;;;;;-143.10;73.57;51026.34;4800454;29;20428;-66
2022/07/07 07:04:26;;;;;;;21.47;15.90;;;;;;;-143.10;72.40;51010.69;4788551;29;20135;-65
2022/07/07 07:07:15;;;;;;;19.25;14.48;;;;;;;-143.10;72.60;51002.84;4782792;30;20075;-66
2022/07/07 07:10:12;;;;;;;17.88;14.32;;;;;;;-143.10;69.89;51022.44;4783617;30;20138;-64
2022/07/07 07:12:49;;;;;;;22.10;15.30;;;;;;;-143.10;72.14;50987.19;4783249;29;20494;-65
2022/07/07 07:15:45;;;;;;;;;;;;;;;-143.10;73.88;50996.97;4784568;30;20418;-66
2022/07/07 07:18:21;;;;;;;18.50;14.90;;;;;;;-143.10;72.82;50998.94;4763671;30;20018;-64
2022/07/07 07:21:17;;;;;;;;;;;;;;;-143.10;71.40;50985.22;4781003;29;20579;-66
2022/07/07 07:23:54;;;;;;;15.23;13.25;;;;;;;-143.10;67.02;51036.13;4782199;29;19972;-66
2022/07/07 07:26:49;;;;;;;;;;;;;;;-143.10;68.65;51012.63;4781904;29;20078;-66
2022/07/07 07:29:25;;;;;;;17.10;13.20;;;;;;;-143.10;69.50;50998.94;4788251;29;19965;-66
2022/07/07 07:32:21;;;;;;;;;;;;;;;-143.10;68.22;50979.34;4783671;29;20074;-67
2022/07/07 07:35:12;;;;;;;18.02;14.40;;;;;;;-143.10;71.49;51002.84;4781706;29;19979;-65
2022/07/07 07:38:01;;;;;;;18.60;15.25;;;;;;;-143.10;70.24;50998.94;4780827;29;20131;-65
2022/07/07 07:40:45;;;;;;;19.35;14.68;;;;;;;-143.10;69.86;50977.41;4780149;29;20355;-65
2022/07/07 07:43:36;;;;;;;16.65;12.60;;;;;;;-143.10;67.36;50987.19;4778905;29;20298;-65
2022/07/07 07:46:22;;;;;;;16.13;11.95;;;;;;;-143.10;66.05;50963.69;4782002;30;20082;-66
2022/07/07 07:49:12;;;;;;;14.13;10.90;;;;;;;-143.10;65.14;50965.66;4782492;29;20089;-65
2022/07/07 07:51:55;;;;;;;17.77;12.73;;;;;;;-143.10;66.07;51002.84;4782528;29;20071;-66
2022/07/07 07:54:48;;;;;;;15.93;11.93;;;;;;;-143.10;66.39;50963.69;4781793;30;20490;-66
2022/07/07 07:57:30;;;;;;;14.82;12.05;;;;;;;-143.10;64.29;50987.19;4781008;29;20079;-67
2022/07/07 08:00:23;;;;;;;14.77;11.73;;;;;;;-143.10;62.22;50995.03;4779325;30;20498;-65
2022/07/07 08:03:06;;;;;;;14.38;10.80;;;;;;;-143.10;62.15;50951.94;4781188;30;20066;-64
2022/07/07 08:05:54;;;;;;;12.70;10.52;;;;;;;-143.10;61.08;51002.84;4780239;30;20079;-66
2022/07/07 08:08:37;;;;;;;14.40;10.95;;;;;;;-143.10;59.79;50967.59;4780418;29;21314;-66
2022/07/07 08:11:27;;;;;;;13.73;9.93;;;;;;;-143.10;62.73;50987.19;4780290;30;20106;-65
2022/07/07 08:14:16;;;;;;;15.80;10.65;;;;;;;-143.10;63.34;50961.72;4781124;30;20075;-65
2022/07/07 08:16:59;;;;;;;;;;;;;;;-143.10;63.75;51006.75;4781415;29;20074;-64
2022/07/07 08:19:56;;;;;;;19.08;11.93;;;;;;;-143.10;64.04;50985.22;4775114;29;19957;-65
2022/07/07 08:22:33;;;;;;;12.82;10.43;;;;;;;-143.10;64.25;50987.19;4774691;29;20256;-65
2022/07/07 08:25:22;;;;;;;14.90;10.57;;;;;;;-143.10;64.62;50987.19;4763384;29;20145;-64
2022/07/07 08:28:12;;;;;;;13.20;9.52;;;;;;;-143.10;63.09;50934.31;4780222;29;20582;-65
2022/07/07 08:31:07;;;;;;;16.65;10.13;;;;;;;-143.10;62.84;50955.88;4787353;29;20071;-65
2022/07/07 08:33:57;;;;;;;12.02;10.73;;;;;;;-143.10;59.54;51006.75;4798986;29;21393;-65
2022/07/07 08:36:48;;;;;;;11.82;9.75;;;;;;;-143.10;58.82;50975.44;4798168;29;21304;-65
2022/07/07 08:39:38;;;;;;;11.40;9.65;;;;;;;-143.10;62.33;50977.41;4784915;29;20448;-65
2022/07/07 08:42:19;;;;;;;;;;;;;;;-143.10;55.71;50959.78;4799316;29;20416;-65
2022/07/07 08:45:17;;;;;;;11.63;9.43;;;;;;;-143.10;57.48;50967.59;4787316;29;19979;-66
2022/07/07 08:47:53;;;;;;;13.13;9.07;;;;;;;-143.10;57.28;50959.78;4798410;29;20137;-66
2022/07/07 08:50:42;;;;;;;10.55;9.30;;;;;;;-143.10;59.59;50951.94;4797209;29;21275;-65
2022/07/07 08:53:26;;;;;;;11.43;9.70;;;;;;;-143.10;59.32;50965.66;4797954;29;20875;-65
2022/07/07 08:56:24;;;;;;;13.90;8.32;;;;;;;-143.10;56.30;50940.19;4788470;29;20082;-66
2022/07/07 08:59:00;;;;;;;11.88;8.77;;;;;;;-143.10;57.35;50955.88;4780381;30;20536;-67
2022/07/07 09:01:56;;;;;;;;;;;;;;;-143.10;58.58;50953.91;4775996;29;20381;-67
2022/07/07 09:04:46;;;;;;;10.75;8.98;;;;;;;-143.10;55.04;50959.78;4776047;30;21445;-66
2022/07/07 09:07:51;;;;;;;11.32;8.80;;;;;;;-143.10;54.56;50944.13;4776916;29;20393;-68
2022/07/07 09:10:42;;;;;;;10.00;8.90;;;;;;;-143.10;55.30;50957.81;4764351;30;20366;-69
2022/07/07 09:13:30;;;;;;;10.68;9.52;;;;;;;-143.10;56.94;50957.81;4781071;29;20082;-69
2022/07/07 09:16:23;;;;;;;11.20;8.90;;;;;;;-143.10;55.87;50959.78;4780382;29;20078;-70
2022/07/07 09:19:17;;;;;;;10.60;9.23;;;;;;;-143.10;55.22;50948.03;4770908;29;20144;-68
2022/07/07 09:22:07;;;;;;;9.57;8.68;;;;;;;-143.10;52.24;50959.78;4780912;29;20120;-66
2022/07/07 09:24:56;;;;;;;12.95;9.02;;;;;;;-143.10;53.71;50965.66;4781140;30;20345;-66
2022/07/07 09:27:58;;;;;;;10.30;9.05;;;;;;;-143.10;57.10;50991.09;4776641;30;21504;-67
2022/07/07 09:30:56;;;;;;;11.73;9.02;;;;;;;-143.10;55.29;50955.88;4778264;29;20079;-67
2022/07/07 09:33:51;;;;;;;14.40;9.63;;;;;;;-143.10;55.21;50967.59;4778818;29;20555;-67
2022/07/07 09:39:51;;;;;;;9.82;8.90;;;;;;;-143.10;55.36;50936.28;4778929;29;20329;-68
2022/07/07 09:43:01;;;;;;;11.07;8.95;;;;;;;-143.10;53.71;50950.00;4777740;29;20380;-67
2022/07/07 09:45:53;;;;;;;12.65;10.18;;;;;;;-143.10;55.23;50934.31;4781656;29;20526;-69
2022/07/07 09:48:38;;;;;;;10.95;8.90;;;;;;;-143.10;55.94;50942.16;4781649;29;20465;-69
2022/07/07 09:51:31;;;;;;;11.13;9.13;;;;;;;-143.10;54.93;50940.19;4781052;29;20075;-66
2022/07/07 09:54:26;;;;;;;9.75;8.75;;;;;;;-143.10;54.56;50946.06;4784077;29;20079;-66
2022/07/07 09:57:18;;;;;;;12.93;9.55;;;;;;;-143.10;57.48;50946.06;4783325;29;20453;-67
2022/07/07 10:00:07;;;;;;;12.63;8.93;;;;;;;-143.10;57.70;50932.38;4784583;30;20075;-67
2022/07/07 10:02:52;;;;;;;9.85;8.60;;;;;;;-143.10;58.20;50924.53;4783759;29;20131;-67
2022/07/07 10:05:41;;;;;;;15.98;9.40;;;;;;;-143.10;60.87;50926.50;4782902;29;20079;-67
2022/07/07 10:08:30;;;;;;;12.52;9.88;;;;;;;-143.10;59.81;50955.88;4782532;29;20581;-67
2022/07/07 10:11:19;;;;;;;14.40;8.88;;;;;;;-143.10;53.42;50936.28;4783989;29;20128;-70
2022/07/07 10:14:09;;;;;;;19.13;11.23;;;;;;;-143.10;54.86;50959.78;4784173;29;20078;-67
2022/07/07 10:17:00;;;;;;;11.63;8.70;;;;;;;-143.10;55.76;50944.13;4768676;30;20426;-68
2022/07/07 10:19:44;;;;;;;12.40;9.35;;;;;;;-143.10;57.48;50950.00;4787707;29;20142;-68
2022/07/07 10:22:34;;;;;;;11.25;9.40;;;;;;;-143.10;56.56;50928.44;4780065;30;21306;-68
2022/07/07 10:25:17;;;;;;;;;;;;;;;-143.10;56.72;50932.38;4782949;30;20070;-68
2022/07/07 10:28:06;;;;;;;10.90;9.00;;;;;;;-143.10;56.52;50971.53;4783334;30;20387;-67
2022/07/07 10:31:27;;;;;;;11.50;8.65;;;;;;;-143.10;58.62;50940.19;4768607;30;20502;-68
2022/07/07 10:34:23;;;;;;;13.55;9.60;;;;;;;-143.10;58.82;50936.28;4784623;29;20070;-67
2022/07/07 10:37:20;;;;;;;12.07;9.25;;;;;;;-143.10;61.06;50916.72;4781670;29;20166;-68
2022/07/07 10:39:57;;;;;;;12.13;8.77;;;;;;;-143.10;57.73;50950.00;4779986;30;20071;-70
2022/07/07 10:43:14;;;;;;;11.20;9.13;;;;;;;-143.10;57.52;50936.28;4780919;29;20506;-68
2022/07/07 10:46:03;;;;;;;12.95;9.30;;;;;;;-143.10;59.04;50940.19;4780402;29;20437;-68
2022/07/07 10:49:04;;;;;;;23.83;9.52;;;;;;;-143.10;59.61;50938.25;4786968;29;20295;-70
2022/07/07 10:52:01;;;;;;;11.90;9.13;;;;;;;-143.10;56.10;50940.19;4783314;30;20480;-67
2022/07/07 10:54:51;;;;;;;10.68;8.98;;;;;;;-143.10;61.10;50948.03;4781783;29;20140;-67
2022/07/07 10:57:49;;;;;;;14.68;9.57;;;;;;;-143.10;59.70;50971.53;4781845;29;21882;-67
2022/07/07 11:00:32;;;;;;;14.07;9.95;;;;;;;-143.10;60.95;50908.88;4780661;29;20078;-68
2022/07/07 11:03:23;;;;;;;14.73;9.30;;;;;;;-143.10;62.68;50940.19;4781330;30;20105;-67
2022/07/07 11:06:06;;;;;;;14.00;10.05;;;;;;;-143.10;63.46;50940.19;4782004;30;20078;-66
2022/07/07 11:09:05;;;;;;;14.68;10.18;;;;;;;-143.10;64.01;50965.66;4781757;30;20382;-69
2022/07/07 11:12:33;;;;;;;12.65;10.90;;;;;;;-143.10;63.61;50950.00;4769483;30;20446;-69
2022/07/07 11:15:27;;;;;;;12.77;10.50;;;;;;;-143.10;64.79;50959.78;4779274;30;20449;-67
2022/07/07 11:18:20;;;;;;;16.55;10.40;;;;;;;-143.10;63.27;50942.16;4783362;30;20516;-67
2022/07/07 11:21:06;;;;;;;14.85;10.48;;;;;;;-143.10;65.47;50924.53;4800153;29;20070;-66
2022/07/07 11:24:02;;;;;;;14.00;10.30;;;;;;;-143.10;67.74;50979.34;4801026;29;20353;-68
2022/07/07 11:26:38;;;;;;;14.40;9.55;;;;;;;-143.10;65.16;50948.03;4800241;29;21428;-67
2022/07/07 11:29:36;;;;;;;20.75;10.98;;;;;;;-143.10;67.27;50942.16;4801460;29;20082;-66
2022/07/07 11:32:25;;;;;;;17.23;10.93;;;;;;;-143.10;66.99;50955.88;4801643;29;20077;-66
2022/07/07 11:35:22;;;;;;;24.02;10.93;;;;;;;-143.10;68.00;50969.56;4783929;30;20143;-65
2022/07/07 11:37:59;;;;;;;12.48;10.55;;;;;;;-143.10;68.80;50959.78;4775600;30;20140;-67
2022/07/07 11:40:55;;;;;;;15.85;11.77;;;;;;;-143.10;70.92;50963.69;4763202;30;20145;-68
2022/07/07 11:43:30;;;;;;;15.98;11.27;;;;;;;-143.10;68.06;50936.28;4764276;30;20229;-66
2022/07/07 11:46:29;;;;;;;;;;;;;;;-143.10;68.11;50959.78;4763420;29;20086;-68
2022/07/07 11:49:05;;;;;;;14.35;11.73;;;;;;;-143.10;69.33;50967.59;4764637;30;19961;-67
2022/07/07 11:51:54;;;;;;;16.67;12.80;;;;;;;-143.10;72.02;50946.06;4765027;30;20078;-67
2022/07/07 11:54:36;;;;;;;;;;;;;;;-143.10;70.36;50975.44;4764449;30;20087;-68
2022/07/07 11:57:34;;;;;;;16.90;12.50;;;;;;;-143.10;71.97;50932.38;4764667;30;19965;-67
2022/07/07 12:00:29;;;;;;;15.55;12.05;;;;;;;-143.10;72.65;50965.66;4750881;30;20155;-68
2022/07/07 12:03:12;;;;;;;15.05;12.07;;;;;;;-143.10;73.04;50948.03;4764361;30;20071;-68
2022/07/07 12:06:03;;;;;;;18.13;13.18;;;;;;;-143.10;75.90;50965.66;4764007;30;20071;-67
2022/07/07 12:08:58;;;;;;;18.65;13.50;;;;;;;-143.10;76.28;50963.69;4762922;30;20488;-68
2022/07/07 12:11:42;;;;;;;17.38;14.35;;;;;;;-143.10;77.49;50975.44;4762118;30;20414;-67
2022/07/07 12:14:33;;;;;;;19.27;12.88;;;;;;;-143.10;78.81;50973.47;4762950;30;20076;-67
2022/07/07 12:17:44;;;;;;;18.92;14.30;;;;;;;-143.10;78.41;50959.78;4745751;30;20105;-67
2022/07/07 12:20:28;;;;;;;19.65;14.70;;;;;;;-143.10;78.86;50951.94;4775858;30;20079;-67
2022/07/07 12:23:24;;;;;;;21.65;15.73;;;;;;;-143.10;79.18;50916.72;4777671;29;20075;-67
2022/07/07 12:26:14;;;;;;;19.45;15.55;;;;;;;-143.10;79.81;50936.28;4763962;30;20101;-69
2022/07/07 12:29:05;;;;;;;25.65;16.10;;;;;;;-143.10;81.83;50959.78;4762655;30;20289;-68
2022/07/07 12:31:50;;;;;;;19.58;15.23;;;;;;;-143.10;81.06;50967.59;4778637;30;20251;-69
2022/07/07 12:34:48;;;;;;;20.33;15.30;;;;;;;-143.10;81.99;50971.53;4797443;29;20683;-68
2022/07/07 12:37:45;;;;;;;19.58;16.63;;;;;;;-143.10;81.22;50989.16;4799249;29;20415;-67
2022/07/07 12:40:28;;;;;;;20.40;15.55;;;;;;;-143.10;82.92;50944.13;4786592;29;20078;-68
2022/07/07 12:43:23;;;;;;;22.00;16.88;;;;;;;-143.10;83.77;50951.94;4766800;30;20132;-68
2022/07/07 12:46:11;;;;;;;22.08;16.25;;;;;;;-143.10;86.61;50955.88;4778959;30;20067;-68
2022/07/07 12:49:08;;;;;;;19.67;16.52;;;;;;;-143.10;84.48;50955.88;4781666;30;20074;-68